Time;durP1;ratioP1;P1;durP2;ratioP2;P2;SDS_P1;SDS_P2;PMS_P1;PMS_P2;Temp;Humidity;BMP_temperature;BMP_pressure;BME280_temperature;BME280_humidity;BME280_pressure;Samples;Min_cycle;Max_cycle;Signal;HPM_P1;HPM_P2
2022/06/07 00:02:24;;;;;;;19.67;11.03;;;;;;;14.04;100.00;100299.48;1791748;79;21702;-58
2022/06/07 00:04:49;;;;;;;18.02;10.75;;;;;;;13.97;100.00;100297.37;1825573;77;21599;-56
2022/06/07 00:07:16;;;;;;;22.90;12.03;;;;;;;13.98;100.00;100294.56;1795116;77;21116;-65
2022/06/07 00:09:43;;;;;;;19.90;12.43;;;;;;;13.98;100.00;100291.11;1800656;77;21777;-56
2022/06/07 00:12:11;;;;;;;22.87;12.60;;;;;;;13.93;100.00;100291.73;1803454;77;21695;-57
2022/06/07 00:14:38;;;;;;;20.23;12.50;;;;;;;13.92;100.00;100288.02;1805289;77;21795;-62
2022/06/07 00:17:05;;;;;;;18.10;11.37;;;;;;;13.92;100.00;100291.44;1805299;78;23006;-56
2022/06/07 00:19:34;;;;;;;19.77;11.60;;;;;;;13.84;100.00;100287.21;1816061;78;21721;-55
2022/06/07 00:22:02;;;;;;;27.03;14.00;;;;;;;13.83;100.00;100279.06;1805817;77;21723;-56
2022/06/07 00:24:29;;;;;;;22.87;13.00;;;;;;;13.85;100.00;100279.64;1815709;78;21646;-56
2022/06/07 00:26:56;;;;;;;28.93;15.50;;;;;;;13.81;100.00;100288.92;1822097;77;21628;-58
2022/06/07 00:29:24;;;;;;;19.80;12.80;;;;;;;13.78;100.00;100275.42;1823854;77;21606;-55
2022/06/07 00:31:51;;;;;;;24.57;13.90;;;;;;;13.68;100.00;100284.22;1788431;78;21689;-56
2022/06/07 00:34:18;;;;;;;20.23;12.63;;;;;;;13.68;100.00;100284.22;1820654;77;21517;-58
2022/06/07 00:36:46;;;;;;;21.27;12.47;;;;;;;13.66;100.00;100285.70;1809455;77;22123;-57
2022/06/07 00:39:13;;;;;;;23.00;12.40;;;;;;;13.68;100.00;100282.91;1817927;77;21771;-65
2022/06/07 00:41:41;;;;;;;21.67;11.93;;;;;;;13.64;100.00;100285.13;1820523;77;22615;-57
2022/06/07 00:44:39;;;;;;;24.10;13.27;;;;;;;13.58;100.00;100284.61;1822391;77;21758;-57
2022/06/07 00:47:13;;;;;;;24.70;14.77;;;;;;;13.57;100.00;100285.63;1820945;77;22176;-55
2022/06/07 00:49:51;;;;;;;20.67;13.87;;;;;;;13.49;100.00;100287.94;1820997;77;21667;-60
2022/06/07 00:52:20;;;;;;;23.63;13.87;;;;;;;13.48;100.00;100282.89;1808178;77;21530;-66
2022/06/07 00:54:49;;;;;;;24.25;15.15;;;;;;;13.44;100.00;100276.44;1815084;78;21621;-56
2022/06/07 00:57:18;;;;;;;25.97;15.30;;;;;;;13.29;100.00;100273.50;1811893;77;21024;-58
2022/06/07 00:59:45;;;;;;;24.17;15.07;;;;;;;13.26;100.00;100271.78;1794328;77;21437;-56
2022/06/07 01:02:13;;;;;;;26.97;16.43;;;;;;;13.26;100.00;100271.78;1832288;77;21935;-56
2022/06/07 01:04:41;;;;;;;25.50;16.00;;;;;;;13.23;100.00;100274.80;1827235;77;21648;-62
2022/06/07 01:12:43;;;;;;;32.83;19.73;;;;;;;13.38;100.00;100283.30;1850982;77;21817;-56
2022/06/07 01:15:11;;;;;;;33.53;18.97;;;;;;;13.41;100.00;100278.14;1820712;77;21602;-58
2022/06/07 01:17:39;;;;;;;32.43;20.37;;;;;;;13.45;100.00;100283.28;1829654;77;21488;-59
2022/06/07 01:20:08;;;;;;;34.97;21.73;;;;;;;13.45;100.00;100283.28;1841438;77;21416;-66
2022/06/07 01:22:35;;;;;;;36.00;21.00;;;;;;;13.57;100.00;100286.94;1835487;77;21713;-56
2022/06/07 01:25:06;;;;;;;34.23;20.87;;;;;;;13.59;100.00;100286.21;1819037;77;21499;-57
2022/06/07 01:27:35;;;;;;;31.53;20.33;;;;;;;13.59;100.00;100286.21;1798122;77;21562;-57
2022/06/07 01:30:04;;;;;;;33.97;19.23;;;;;;;13.63;100.00;100291.34;1841248;77;21711;-64
2022/06/07 01:32:32;;;;;;;34.73;21.07;;;;;;;13.61;100.00;100292.88;1834293;77;21521;-55
2022/06/07 01:34:59;;;;;;;33.43;21.60;;;;;;;13.56;100.00;100297.08;1844812;77;21847;-54
2022/06/07 01:37:26;;;;;;;31.47;18.37;;;;;;;13.48;100.00;100299.40;1830634;77;21349;-63
2022/06/07 01:42:40;;;;;;;27.20;17.97;;;;;;;13.56;100.00;100296.61;1823440;77;21675;-55
2022/06/07 01:45:08;;;;;;;27.80;16.47;;;;;;;13.58;100.00;100297.70;1817187;77;21735;-64
2022/06/07 01:47:37;;;;;;;26.93;17.27;;;;;;;13.58;100.00;100297.70;1841887;77;21669;-57
2022/06/07 01:50:06;;;;;;;27.70;16.97;;;;;;;13.62;100.00;100293.67;1839581;77;21480;-61
2022/06/07 01:52:34;;;;;;;28.37;18.13;;;;;;;13.55;100.00;100294.97;1835115;77;21501;-56
2022/06/07 01:55:06;;;;;;;;;;;;;;;13.61;100.00;100301.23;1825633;77;21434;-56
2022/06/07 01:57:34;;;;;;;28.47;16.27;;;;;;;13.84;100.00;100299.00;1843715;77;20079;-57
2022/06/07 02:00:05;;;;;;;25.23;15.13;;;;;;;14.26;100.00;100299.53;1817484;77;21583;-59
2022/06/07 02:02:35;;;;;;;24.43;16.20;;;;;;;14.80;100.00;100299.66;1769453;80;21570;-56
2022/06/07 02:05:04;;;;;;;21.37;14.83;;;;;;;15.44;100.00;100295.73;1777667;79;21767;-56
2022/06/07 02:07:31;;;;;;;22.13;14.30;;;;;;;16.03;100.00;100290.50;1795407;79;21750;-56
2022/06/07 02:10:00;;;;;;;25.67;15.93;;;;;;;16.69;100.00;100293.68;1814388;77;21140;-55
2022/06/07 02:12:30;;;;;;;27.17;17.90;;;;;;;17.35;100.00;100292.48;1829930;78;20967;-56
2022/06/07 02:14:59;;;;;;;30.70;18.37;;;;;;;18.06;100.00;100295.98;1811830;78;22692;-56
2022/06/07 02:17:26;;;;;;;28.47;19.07;;;;;;;18.76;100.00;100291.09;1807306;78;20930;-55
2022/06/07 02:20:05;;;;;;;25.03;17.23;;;;;;;19.40;100.00;100292.47;1801779;78;21611;-59
2022/06/07 02:22:33;;;;;;;26.73;18.63;;;;;;;20.12;100.00;100292.21;1783222;79;21394;-56
2022/06/07 02:25:00;;;;;;;25.63;18.07;;;;;;;20.68;100.00;100292.88;1772362;79;21518;-56
2022/06/07 02:27:29;;;;;;;25.17;18.33;;;;;;;21.35;100.00;100290.36;1781984;79;21662;-55
2022/06/07 02:29:56;;;;;;;28.63;17.90;;;;;;;21.97;100.00;100299.52;1792989;79;21041;-55
2022/06/07 02:32:27;;;;;;;23.13;16.90;;;;;;;22.61;100.00;100301.14;1786288;79;20981;-57
2022/06/07 02:34:56;;;;;;;22.40;16.73;;;;;;;23.22;100.00;100298.09;1793890;79;21002;-62
2022/06/07 02:37:25;;;;;;;24.93;17.20;;;;;;;23.77;100.00;100297.80;1789505;79;21591;-60
2022/06/07 02:39:52;;;;;;;22.73;16.23;;;;;;;24.30;100.00;100292.58;1795472;79;21145;-57
2022/06/07 02:42:20;;;;;;;26.80;19.03;;;;;;;24.74;90.45;100290.77;1790358;79;21053;-59
2022/06/07 02:44:48;;;;;;;27.03;19.23;;;;;;;25.21;81.09;100297.39;1797653;79;21073;-60
2022/06/07 02:47:17;;;;;;;26.63;19.57;;;;;;;25.65;74.13;100297.02;1792899;79;21042;-61
2022/06/07 02:49:47;;;;;;;;;;;;;;;26.08;68.07;100299.78;1822965;78;21535;-60
2022/06/07 02:52:14;;;;;;;25.07;18.07;;;;;;;26.32;63.13;100297.87;1826865;78;22174;-59
2022/06/07 02:54:48;;;;;;;26.25;19.10;;;;;;;26.72;59.85;100294.44;1805719;77;20991;-67
2022/06/07 02:57:16;;;;;;;25.00;17.40;;;;;;;27.15;57.08;100294.34;1774674;79;21012;-58
2022/06/07 02:59:44;;;;;;;24.18;16.02;;;;;;;27.57;55.78;100295.22;1784845;79;21033;-66
2022/06/07 03:02:13;;;;;;;22.13;15.78;;;;;;;28.06;52.76;100291.11;1804234;78;21080;-56
2022/06/07 03:04:40;;;;;;;21.40;16.20;;;;;;;28.45;50.50;100291.13;1808417;77;21856;-60
2022/06/07 03:07:07;;;;;;;21.35;16.30;;;;;;;28.71;49.37;100292.14;1822824;77;21028;-59
2022/06/07 03:09:36;;;;;;;21.45;15.90;;;;;;;28.99;47.85;100293.42;1832982;77;20907;-56
2022/06/07 03:12:05;;;;;;;20.43;14.35;;;;;;;29.38;45.85;100292.71;1823128;77;21508;-57
2022/06/07 03:14:33;;;;;;;19.05;14.70;;;;;;;29.73;44.19;100295.59;1803525;77;21146;-55
2022/06/07 03:17:01;;;;;;;20.17;14.30;;;;;;;30.19;42.67;100291.11;1840262;77;21102;-61
2022/06/07 03:19:30;;;;;;;17.55;13.68;;;;;;;30.63;41.40;100295.96;1826722;77;21105;-57
2022/06/07 03:21:58;;;;;;;18.17;13.95;;;;;;;31.01;40.41;100292.08;1836494;77;20966;-57
2022/06/07 03:24:26;;;;;;;21.00;14.18;;;;;;;31.47;39.14;100292.47;1833718;77;21321;-56
2022/06/07 03:26:55;;;;;;;16.50;12.37;;;;;;;31.89;38.27;100285.34;1833501;77;20938;-63
2022/06/07 03:29:22;;;;;;;20.27;13.85;;;;;;;32.34;37.20;100283.95;1842943;77;21266;-56
2022/06/07 03:31:50;;;;;;;17.57;13.60;;;;;;;32.71;36.35;100279.56;1799432;78;21022;-59
2022/06/07 03:34:19;;;;;;;17.85;12.68;;;;;;;33.00;34.96;100280.58;1844713;77;21357;-60
2022/06/07 03:36:47;;;;;;;17.37;12.63;;;;;;;33.01;34.88;100283.53;1831113;77;21038;-61
2022/06/07 03:39:14;;;;;;;14.83;11.97;;;;;;;33.12;35.07;100288.17;1828817;77;21516;-57
2022/06/07 03:41:44;;;;;;;20.32;12.03;;;;;;;33.54;34.58;100281.28;1821841;77;21315;-64
2022/06/07 03:44:13;;;;;;;18.27;12.03;;;;;;;34.04;34.00;100289.62;1833655;77;21030;-57
2022/06/07 03:46:44;;;;;;;14.25;11.75;;;;;;;34.49;32.76;100285.95;1843813;77;21043;-56
2022/06/07 03:49:11;;;;;;;14.73;11.55;;;;;;;34.78;32.10;100294.30;1834883;77;21070;-57
2022/06/07 03:51:38;;;;;;;17.15;11.73;;;;;;;35.16;31.61;100292.20;1850146;77;21875;-61
2022/06/07 03:54:06;;;;;;;16.60;11.63;;;;;;;35.42;31.03;100291.15;1844348;77;21468;-58
2022/06/07 03:56:35;;;;;;;17.87;11.57;;;;;;;35.43;30.69;100288.65;1829298;77;20995;-56
2022/06/07 03:59:04;;;;;;;13.40;10.53;;;;;;;35.64;30.47;100287.61;1832643;77;21014;-64
2022/06/07 04:01:32;;;;;;;17.65;12.15;;;;;;;35.91;30.10;100280.47;1829735;77;21374;-64
2022/06/07 04:04:02;;;;;;;14.70;11.83;;;;;;;36.03;29.78;100285.83;1839444;77;21501;-56
2022/06/07 04:06:41;;;;;;;15.05;11.57;;;;;;;36.28;29.65;100284.98;1823227;77;21267;-57
2022/06/07 04:09:09;;;;;;;18.70;11.90;;;;;;;36.69;29.12;100281.37;1822898;77;20948;-55
2022/06/07 04:11:39;;;;;;;;;;;;;;;36.82;28.62;100286.07;1832366;77;20971;-56
2022/06/07 04:14:07;;;;;;;15.03;11.03;;;;;;;36.89;28.15;100288.92;1837102;77;20237;-56
2022/06/07 04:16:37;;;;;;;15.53;12.15;;;;;;;36.68;28.32;100296.11;1840275;77;21449;-62
2022/06/07 04:19:11;;;;;;;15.75;11.85;;;;;;;36.70;28.10;100296.52;1841640;77;21488;-57
2022/06/07 04:21:38;;;;;;;16.45;10.85;;;;;;;36.84;28.21;100295.44;1843366;77;21583;-57
2022/06/07 04:24:11;;;;;;;14.13;10.65;;;;;;;37.14;27.63;100299.70;1842234;77;20880;-56
2022/06/07 04:26:40;;;;;;;17.62;10.28;;;;;;;37.20;27.47;100298.27;1833374;77;21004;-65
2022/06/07 04:29:07;;;;;;;13.93;11.05;;;;;;;37.34;27.19;100305.86;1821872;77;21830;-56
2022/06/07 04:31:34;;;;;;;13.45;10.45;;;;;;;37.43;27.02;100307.80;1821529;77;21615;-56
2022/06/07 04:34:04;;;;;;;14.07;11.40;;;;;;;37.41;26.96;100304.65;1823065;77;21114;-56
2022/06/07 04:36:32;;;;;;;14.00;10.60;;;;;;;37.48;26.96;100309.42;1830631;77;21236;-62
2022/06/07 04:39:00;;;;;;;14.38;10.50;;;;;;;37.48;26.87;100306.13;1818702;77;21900;-55
2022/06/07 04:41:29;;;;;;;17.20;11.22;;;;;;;37.44;27.00;100309.36;1820008;77;21078;-64
2022/06/07 04:43:58;;;;;;;14.73;10.97;;;;;;;37.57;26.92;100309.16;1843704;77;22332;-55
2022/06/07 04:46:26;;;;;;;15.10;10.20;;;;;;;37.77;26.59;100314.71;1831610;77;20986;-63
2022/06/07 04:48:55;;;;;;;15.58;10.63;;;;;;;38.05;26.57;100315.75;1830458;77;20987;-56
2022/06/07 04:51:27;;;;;;;14.30;9.80;;;;;;;38.24;26.02;100311.33;1826238;77;21058;-63
2022/06/07 04:54:03;;;;;;;;;;;;;;;38.27;25.79;100310.02;1821793;77;21074;-60
2022/06/07 04:56:34;;;;;;;14.63;10.25;;;;;;;38.41;25.79;100321.67;1827212;77;21347;-55
2022/06/07 04:59:03;;;;;;;11.97;9.35;;;;;;;38.52;25.71;100319.87;1814318;77;22669;-58
2022/06/07 05:01:35;;;;;;;15.45;9.65;;;;;;;38.42;25.12;100326.77;1759092;80;21026;-56
2022/06/07 05:04:04;;;;;;;15.15;8.80;;;;;;;38.41;25.16;100325.76;1758546;80;21006;-64
2022/06/07 05:06:37;;;;;;;;;;;;;;;38.32;25.10;100331.46;1771372;78;20990;-55
2022/06/07 05:09:13;;;;;;;11.38;8.10;;;;;;;38.09;25.26;100328.05;1771463;79;21630;-58
2022/06/07 05:11:40;;;;;;;13.93;8.20;;;;;;;37.95;25.41;100334.06;1762853;80;20928;-55
2022/06/07 05:14:07;;;;;;;10.90;7.55;;;;;;;37.65;25.41;100333.96;1789803;79;21101;-56
2022/06/07 05:16:38;;;;;;;10.65;9.45;;;;;;;37.59;25.72;100334.08;1779638;79;21485;-58
2022/06/07 05:19:07;;;;;;;13.70;9.73;;;;;;;38.01;25.96;100328.52;1772063;79;22010;-56
2022/06/07 05:21:34;;;;;;;11.88;9.63;;;;;;;38.53;25.98;100328.81;1770121;79;21269;-56
2022/06/07 05:24:01;;;;;;;11.88;8.85;;;;;;;39.13;24.90;100324.63;1769746;79;21046;-57
2022/06/07 05:26:44;;;;;;;12.07;8.88;;;;;;;39.62;24.19;100328.37;1768478;79;22053;-57
2022/06/07 05:29:34;;;;;;;10.63;9.35;;;;;;;39.93;23.58;100323.57;1818801;78;21399;-56
2022/06/07 05:32:01;;;;;;;8.50;6.97;;;;;;;39.85;23.71;100332.27;1808120;77;21090;-56
2022/06/07 05:34:28;;;;;;;6.58;5.08;;;;;;;39.88;23.45;100328.78;1830566;77;21251;-56
2022/06/07 05:36:57;;;;;;;6.15;5.03;;;;;;;39.43;22.98;100325.11;1825196;77;21109;-55
2022/06/07 05:39:27;;;;;;;7.00;5.10;;;;;;;39.01;23.53;100325.69;1828451;77;21058;-58
2022/06/07 05:41:55;;;;;;;7.03;4.92;;;;;;;39.01;23.47;100320.81;1831290;77;21046;-56
2022/06/07 05:44:23;;;;;;;8.13;4.28;;;;;;;39.04;23.20;100325.52;1833506;77;21614;-64
2022/06/07 05:46:52;;;;;;;5.03;4.28;;;;;;;38.93;23.22;100324.05;1819774;77;21260;-56
2022/06/07 05:49:26;;;;;;;5.10;4.15;;;;;;;38.99;23.16;100320.42;1777022;78;21116;-56
2022/06/07 05:52:02;;;;;;;5.00;3.60;;;;;;;38.77;24.18;100322.89;1777372;79;21034;-57
2022/06/07 05:54:31;;;;;;;4.50;3.00;;;;;;;38.85;22.87;100319.69;1832615;77;21529;-57
2022/06/07 05:56:59;;;;;;;5.78;3.08;;;;;;;39.02;22.75;100316.92;1827161;77;21493;-55
2022/06/07 05:59:27;;;;;;;6.12;4.25;;;;;;;39.14;22.56;100318.81;1824643;77;21737;-55
2022/06/07 06:01:55;;;;;;;5.78;4.12;;;;;;;39.12;22.29;100321.70;1779240;79;21531;-61
2022/06/07 06:04:25;;;;;;;6.22;3.77;;;;;;;38.49;22.45;100320.60;1771937;79;21496;-56
2022/06/07 06:06:59;;;;;;;4.45;3.37;;;;;;;38.12;22.57;100321.87;1779736;79;21103;-55
2022/06/07 06:12:15;;;;;;;5.95;2.72;;;;;;;38.00;22.75;100320.70;1817645;77;21063;-56
2022/06/07 06:14:44;;;;;;;3.42;2.45;;;;;;;37.63;23.41;100317.23;1822639;77;20991;-59
2022/06/07 06:17:14;;;;;;;4.37;2.47;;;;;;;37.36;23.14;100329.41;1836918;77;20986;-57
2022/06/07 06:19:43;;;;;;;3.83;2.60;;;;;;;37.07;23.15;100327.33;1819964;77;21004;-64
2022/06/07 06:22:11;;;;;;;3.72;2.35;;;;;;;37.01;24.14;100324.91;1835193;77;21023;-56
2022/06/07 06:24:40;;;;;;;5.00;3.15;;;;;;;37.39;23.50;100325.16;1844655;77;21501;-63
2022/06/07 06:27:08;;;;;;;5.70;3.05;;;;;;;37.60;22.97;100324.77;1827346;77;21787;-56
2022/06/07 06:29:38;;;;;;;;;;;;;;;37.80;22.77;100325.45;1830828;77;22379;-63
2022/06/07 06:32:07;;;;;;;4.83;3.10;;;;;;;38.08;22.27;100324.55;1831213;77;20149;-58
2022/06/07 06:34:35;;;;;;;4.65;2.72;;;;;;;37.65;22.34;100327.16;1847579;77;21101;-57
2022/06/07 06:37:06;;;;;;;3.27;1.80;;;;;;;37.34;22.71;100328.97;1828043;77;21121;-55
2022/06/07 06:39:36;;;;;;;5.08;2.77;;;;;;;36.97;22.39;100325.97;1821484;77;21523;-57
2022/06/07 06:42:04;;;;;;;5.00;3.77;;;;;;;36.26;22.94;100325.29;1829768;77;21395;-56
2022/06/07 06:44:34;;;;;;;4.53;3.10;;;;;;;35.85;23.48;100328.80;1789245;77;21516;-57
2022/06/07 06:47:03;;;;;;;7.05;3.40;;;;;;;35.56;24.94;100328.67;1826975;77;21058;-55
2022/06/07 06:49:32;;;;;;;7.72;5.00;;;;;;;35.57;24.02;100335.13;1832307;77;21198;-56
2022/06/07 06:51:59;;;;;;;3.58;2.60;;;;;;;35.52;24.25;100320.45;1817523;77;20988;-57
2022/06/07 06:54:30;;;;;;;3.77;2.33;;;;;;;35.45;23.22;100324.88;1831716;77;21057;-55
2022/06/07 06:56:59;;;;;;;5.35;2.25;;;;;;;35.26;23.68;100316.86;1834583;77;21050;-55
2022/06/07 06:59:28;;;;;;;3.40;2.05;;;;;;;35.16;24.43;100323.36;1841941;77;21089;-55
2022/06/07 07:01:57;;;;;;;3.37;1.87;;;;;;;35.13;23.77;100325.43;1822141;77;21125;-55
2022/06/07 07:04:26;;;;;;;5.15;2.40;;;;;;;34.93;23.07;100318.50;1818692;77;21420;-57
2022/06/07 07:06:54;;;;;;;4.55;2.90;;;;;;;34.93;24.03;100319.86;1835616;77;21526;-58
2022/06/07 07:09:24;;;;;;;5.35;3.05;;;;;;;35.37;23.65;100319.85;1826886;77;20923;-56
2022/06/07 07:11:52;;;;;;;5.87;2.98;;;;;;;35.27;23.43;100323.06;1835165;77;20992;-60
2022/06/07 07:14:21;;;;;;;4.03;1.57;;;;;;;34.95;24.59;100328.41;1827800;77;22083;-56
2022/06/07 07:16:50;;;;;;;3.17;2.00;;;;;;;35.18;23.45;100321.10;1823904;77;21060;-55
2022/06/07 07:19:18;;;;;;;6.10;3.40;;;;;;;35.52;22.62;100321.03;1825256;77;21124;-55
2022/06/07 07:21:48;;;;;;;5.47;4.00;;;;;;;35.48;22.67;100316.84;1842269;77;21355;-62
2022/06/07 07:24:19;;;;;;;5.87;4.25;;;;;;;35.64;22.71;100316.08;1836670;77;21766;-55
2022/06/07 07:26:48;;;;;;;5.28;3.70;;;;;;;35.76;22.50;100315.43;1833581;77;21127;-56
2022/06/07 07:29:18;;;;;;;10.45;6.45;;;;;;;35.55;23.00;100317.05;1841733;77;21553;-56
2022/06/07 07:31:47;;;;;;;9.13;6.85;;;;;;;35.14;23.62;100318.30;1825055;77;20955;-57
2022/06/07 07:34:16;;;;;;;9.25;6.70;;;;;;;34.34;24.80;100315.05;1843763;77;38672;-55
2022/06/07 07:36:48;;;;;;;6.47;4.62;;;;;;;34.01;25.84;100312.51;1834102;77;21054;-55
2022/06/07 07:39:15;;;;;;;9.25;6.00;;;;;;;34.07;25.24;100314.65;1825823;77;21156;-57
2022/06/07 07:41:45;;;;;;;8.75;6.60;;;;;;;33.71;25.01;100313.27;1829783;77;20983;-62
2022/06/07 07:44:14;;;;;;;8.93;5.70;;;;;;;33.49;25.46;100317.19;1825043;77;21030;-57
2022/06/07 07:46:44;;;;;;;7.75;5.08;;;;;;;33.76;25.51;100311.14;1820665;77;20973;-56
2022/06/07 07:49:13;;;;;;;7.05;4.53;;;;;;;34.11;24.81;100314.19;1824544;77;20873;-64
2022/06/07 07:51:43;;;;;;;;;;;;;;;34.41;24.95;100315.84;1786821;79;21242;-57
2022/06/07 07:54:13;;;;;;;5.58;3.22;;;;;;;34.73;25.37;100312.70;1792363;79;20119;-56
2022/06/07 07:56:41;;;;;;;4.80;3.25;;;;;;;34.93;24.42;100311.73;1776843;79;20928;-56
2022/06/07 07:59:09;;;;;;;7.95;4.05;;;;;;;34.80;24.89;100312.91;1781494;79;20982;-62
2022/06/07 08:01:38;;;;;;;;;;;;;;;34.60;25.67;100312.75;1810052;77;22223;-63
2022/06/07 08:04:05;;;;;;;5.83;4.47;;;;;;;34.51;24.74;100309.41;1811446;77;21130;-55
2022/06/07 08:06:36;;;;;;;4.20;3.50;;;;;;;34.11;25.06;100314.76;1795784;78;20988;-57
2022/06/07 08:09:06;;;;;;;4.47;3.25;;;;;;;33.61;25.87;100322.06;1769645;79;27105;-61
2022/06/07 08:11:35;;;;;;;7.55;3.77;;;;;;;32.84;26.95;100312.22;1773658;79;21037;-55
2022/06/07 08:14:04;;;;;;;4.08;2.75;;;;;;;32.29;28.11;100325.41;1766829;79;21074;-61
2022/06/07 08:16:31;;;;;;;4.60;3.12;;;;;;;31.97;27.75;100316.88;1773611;79;21227;-55
2022/06/07 08:18:58;;;;;;;4.90;2.83;;;;;;;32.00;27.49;100312.72;1775581;79;21107;-58
2022/06/07 08:21:27;;;;;;;5.00;2.80;;;;;;;32.20;26.06;100305.24;1819887;77;21470;-60
2022/06/07 08:23:55;;;;;;;4.30;3.85;;;;;;;32.32;26.23;100309.14;1832389;77;21325;-63
2022/06/07 08:26:23;;;;;;;3.60;2.47;;;;;;;32.27;26.94;100307.40;1823292;77;21070;-55
2022/06/07 08:28:50;;;;;;;4.70;2.25;;;;;;;32.33;27.01;100310.71;1827462;77;21327;-55
2022/06/07 08:31:22;;;;;;;4.70;2.00;;;;;;;32.49;27.00;100303.63;1823614;77;20965;-57
2022/06/07 08:39:19;;;;;;;3.80;2.00;;;;;;;33.31;27.47;100300.38;1827264;77;21379;-55
2022/06/07 08:42:19;;;;;;;5.05;2.10;;;;;;;33.78;26.33;100292.66;1827698;77;21623;-55
2022/06/07 08:45:02;;;;;;;3.90;2.40;;;;;;;33.96;25.50;100297.84;1832449;77;21054;-56
2022/06/07 08:47:45;;;;;;;1.82;1.30;;;;;;;33.43;25.19;100301.73;1825357;77;21471;-55
2022/06/07 08:50:31;;;;;;;2.58;1.70;;;;;;;32.97;25.58;100298.25;1843054;77;21394;-63
2022/06/07 08:53:03;;;;;;;1.98;1.50;;;;;;;33.15;26.13;100293.48;1830291;77;21442;-55
2022/06/07 08:55:38;;;;;;;3.05;1.70;;;;;;;33.47;26.03;100296.48;1821469;77;21246;-55
2022/06/07 08:58:19;;;;;;;3.58;1.85;;;;;;;33.55;26.74;100292.31;1826477;77;20989;-56
2022/06/07 09:00:48;;;;;;;;;;;;;;;33.65;26.74;100283.77;1815242;76;21827;-55
2022/06/07 09:03:27;;;;;;;3.27;2.02;;;;;;;33.76;25.57;100280.05;1829141;77;20214;-56
2022/06/07 09:05:56;;;;;;;3.27;2.05;;;;;;;34.14;25.68;100282.97;1832354;77;20955;-63
2022/06/07 09:08:25;;;;;;;2.87;1.90;;;;;;;34.33;24.73;100288.56;1843823;77;21827;-57
2022/06/07 09:13:39;;;;;;;3.33;2.15;;;;;;;33.99;25.40;100280.41;1799980;77;21538;-59
2022/06/07 09:16:09;;;;;;;4.62;2.72;;;;;;;33.65;25.14;100282.42;1777503;77;21113;-56
2022/06/07 09:18:36;;;;;;;4.00;1.95;;;;;;;33.41;25.44;100286.41;1755161;79;21027;-58
2022/06/07 09:21:09;;;;;;;4.42;1.80;;;;;;;33.41;26.27;100281.00;1729404;81;21116;-65
2022/06/07 09:23:50;;;;;;;4.37;1.87;;;;;;;33.61;27.05;100276.67;1775857;79;21777;-65
2022/06/07 09:26:24;;;;;;;;;;;;;;;33.81;25.88;100281.17;1785643;79;21537;-56
2022/06/07 09:29:09;;;;;;;2.85;1.92;;;;;;;33.13;26.07;100276.80;1800566;79;20180;-59
2022/06/07 09:31:42;;;;;;;1.92;1.50;;;;;;;31.85;27.35;100282.24;1743610;81;22085;-56
2022/06/07 09:34:28;;;;;;;2.33;1.62;;;;;;;30.71;28.58;100287.09;1770401;79;21223;-56
2022/06/07 09:37:02;;;;;;;2.52;1.82;;;;;;;30.09;29.85;100279.27;1772447;79;21058;-61
2022/06/07 09:39:34;;;;;;;3.17;1.60;;;;;;;29.98;30.94;100277.97;1769185;79;20999;-56
2022/06/07 09:42:27;;;;;;;3.85;2.10;;;;;;;30.14;29.99;100270.25;1771121;79;21108;-64
2022/06/07 09:45:01;;;;;;;2.20;1.70;;;;;;;30.40;30.32;100263.59;1762628;79;21874;-55
2022/06/07 09:47:29;;;;;;;4.83;1.42;;;;;;;31.22;29.73;100264.49;1771375;79;21364;-56
2022/06/07 09:50:23;;;;;;;2.95;1.60;;;;;;;31.81;28.20;100259.19;1774557;79;21133;-55
2022/06/07 09:52:59;;;;;;;3.65;1.77;;;;;;;31.91;27.49;100249.98;1773126;79;20998;-54
2022/06/07 09:55:47;;;;;;;2.67;1.90;;;;;;;32.00;28.69;100253.97;1767240;79;22144;-59
2022/06/07 09:58:45;;;;;;;2.45;1.70;;;;;;;32.28;28.23;100251.01;1731388;79;21018;-56
2022/06/07 10:01:36;;;;;;;3.72;1.45;;;;;;;32.32;29.04;100249.23;1769134;79;22303;-57
2022/06/07 10:04:36;;;;;;;3.62;2.27;;;;;;;32.58;28.30;100250.39;1770973;79;21058;-57
2022/06/07 10:07:13;;;;;;;5.90;2.60;;;;;;;32.55;27.75;100247.00;1776850;79;21026;-55
2022/06/07 10:10:01;;;;;;;3.92;1.90;;;;;;;32.52;27.63;100250.36;1792394;79;21057;-55
2022/06/07 10:12:39;;;;;;;2.90;1.57;;;;;;;32.58;28.21;100250.39;1796505;79;21672;-55
2022/06/07 10:15:45;;;;;;;3.50;2.08;;;;;;;32.98;27.16;100244.47;1789851;79;21239;-55
2022/06/07 10:18:59;;;;;;;5.22;2.00;;;;;;;33.11;27.04;100248.78;1752980;81;20931;-56
2022/06/07 10:22:06;;;;;;;2.85;1.90;;;;;;;32.89;26.52;100251.85;1721653;82;21024;-57
2022/06/07 10:24:54;;;;;;;2.55;1.87;;;;;;;32.66;26.68;100252.78;1830552;78;21195;-57
2022/06/07 10:28:09;;;;;;;3.50;2.12;;;;;;;32.75;27.27;100243.25;1815098;78;21073;-58
2022/06/07 10:31:11;;;;;;;2.85;1.70;;;;;;;32.81;27.53;100243.28;1786962;79;21260;-57
2022/06/07 10:33:56;;;;;;;2.83;1.80;;;;;;;32.39;26.23;100249.49;1810960;78;20945;-57
2022/06/07 10:36:50;;;;;;;2.45;1.77;;;;;;;31.57;27.55;100262.48;1820831;78;21041;-63
2022/06/07 10:39:33;;;;;;;3.25;2.00;;;;;;;31.13;28.73;100256.98;1783477;79;21045;-57
2022/06/07 10:42:35;;;;;;;2.45;1.27;;;;;;;30.85;29.14;100255.22;1778418;79;20930;-67
2022/06/07 10:45:19;;;;;;;4.67;1.70;;;;;;;30.45;29.73;100260.73;1822295;78;21075;-57
2022/06/07 10:48:04;;;;;;;2.92;1.98;;;;;;;29.94;30.29;100256.86;1817134;77;21365;-57
2022/06/07 10:50:36;;;;;;;3.27;2.30;;;;;;;29.85;31.10;100252.00;1774006;79;21119;-58
2022/06/07 10:53:18;;;;;;;5.45;2.22;;;;;;;29.97;30.64;100252.20;1766318;80;21053;-61
2022/06/07 10:56:02;;;;;;;3.62;2.15;;;;;;;30.28;30.45;100249.43;1810013;78;21050;-55
2022/06/07 10:58:40;;;;;;;3.08;1.72;;;;;;;30.46;28.70;100233.55;1818618;78;21770;-59
2022/06/07 11:01:20;;;;;;;4.12;1.80;;;;;;;30.65;28.53;100233.22;1792307;79;21754;-55
2022/06/07 11:10:22;;;;;;;2.85;1.42;;;;;;;31.12;29.50;100222.53;1779028;79;21042;-57
2022/06/07 11:13:17;;;;;;;3.70;2.67;;;;;;;31.14;29.22;100222.20;1739914;81;21540;-63
2022/06/07 11:16:05;;;;;;;4.33;2.10;;;;;;;31.11;29.18;100225.56;1786164;79;21390;-56
2022/06/07 11:18:32;;;;;;;4.65;2.60;;;;;;;30.98;29.72;100220.59;1772150;79;20935;-65
2022/06/07 11:21:09;;;;;;;4.85;3.10;;;;;;;30.74;29.63;100219.22;1772424;79;21379;-56
2022/06/07 11:23:49;;;;;;;5.15;2.60;;;;;;;30.40;28.68;100213.84;1780848;79;21011;-57
2022/06/07 11:26:17;;;;;;;4.33;2.90;;;;;;;30.14;29.23;100218.62;1772945;79;21252;-66
2022/06/07 11:28:49;;;;;;;3.58;2.47;;;;;;;30.16;29.64;100214.29;1772975;79;21577;-59
2022/06/07 11:31:42;;;;;;;3.98;2.17;;;;;;;30.32;29.71;100206.56;1777716;80;21046;-57
2022/06/07 11:34:29;;;;;;;3.77;1.80;;;;;;;30.49;28.77;100215.41;1774327;79;20975;-59
2022/06/07 11:37:12;;;;;;;2.52;1.70;;;;;;;30.68;29.04;100199.48;1779782;79;21058;-56
2022/06/07 11:39:55;;;;;;;2.77;1.82;;;;;;;31.19;28.83;100199.95;1772229;79;21308;-57
2022/06/07 11:42:35;;;;;;;4.10;1.82;;;;;;;31.55;28.61;100190.61;1791265;79;21394;-58
2022/06/07 11:45:19;;;;;;;4.37;1.80;;;;;;;31.69;28.80;100187.13;1786270;79;21067;-57
2022/06/07 11:47:55;;;;;;;3.10;2.20;;;;;;;31.54;28.58;100194.42;1793538;79;21482;-56
2022/06/07 11:50:29;;;;;;;3.75;2.30;;;;;;;31.22;28.03;100185.05;1796538;79;21500;-65
2022/06/07 11:53:28;;;;;;;6.22;3.75;;;;;;;31.08;28.87;100193.33;1784914;79;21482;-58
2022/06/07 11:56:11;;;;;;;5.08;3.90;;;;;;;31.03;28.62;100188.13;1772986;79;20998;-58
2022/06/07 11:58:59;;;;;;;5.47;4.15;;;;;;;31.01;28.67;100182.27;1793130;79;20989;-57
2022/06/07 12:01:36;;;;;;;4.00;3.17;;;;;;;30.99;28.60;100177.77;1777954;79;20975;-64
2022/06/07 12:04:44;;;;;;;4.03;2.90;;;;;;;30.87;28.79;100180.31;1779375;79;21288;-55
2022/06/07 12:07:36;;;;;;;4.00;2.60;;;;;;;30.78;29.02;100175.75;1793241;79;21166;-56
2022/06/07 12:10:24;;;;;;;4.08;2.85;;;;;;;30.87;28.57;100184.36;1779279;79;21183;-56
2022/06/07 12:12:59;;;;;;;6.22;4.53;;;;;;;30.87;28.58;100183.80;1769016;79;21112;-56